Time;durP1;ratioP1;P1;durP2;ratioP2;P2;SDS_P1;SDS_P2;PMS_P1;PMS_P2;Temp;Humidity;BMP_temperature;BMP_pressure;BME280_temperature;BME280_humidity;BME280_pressure;Samples;Min_cycle;Max_cycle;Signal;HPM_P1;HPM_P2
2024/01/28 00:01:55;;;;;;;5.00;2.87;;;;;;;-141.97;52.08;45989.47;4938819;29;20479;-90
2024/01/28 00:04:20;;;;;;;6.13;2.53;;;;;;;-141.97;52.46;46112.44;4938882;29;20179;-90
2024/01/28 00:06:46;;;;;;;6.23;2.60;;;;;;;-141.97;52.46;45941.44;4938238;29;20168;-90
2024/01/28 00:09:11;;;;;;;4.03;3.27;;;;;;;-141.97;52.73;45987.56;4953277;29;20169;-91
2024/01/28 00:11:37;;;;;;;4.97;2.90;;;;;;;-141.97;53.28;45941.44;4937155;29;20192;-90
2024/01/28 00:14:02;;;;;;;5.23;3.10;;;;;;;-141.97;53.67;46427.53;4936711;29;20280;-91
2024/01/28 00:16:28;;;;;;;5.07;2.70;;;;;;;-141.97;53.43;46304.56;4936876;29;20542;-91
2024/01/28 00:18:58;;;;;;;6.03;3.03;;;;;;;-141.97;53.53;45874.22;4952599;29;20177;-90
2024/01/28 00:21:27;;;;;;;5.13;2.90;;;;;;;-141.97;53.55;46412.16;4937073;29;20172;-90
2024/01/28 00:23:52;;;;;;;4.43;3.20;;;;;;;-141.97;53.69;46400.63;4936600;29;20427;-90
2024/01/28 00:26:19;;;;;;;4.60;3.17;;;;;;;-141.97;54.86;46308.41;4952627;29;20436;-91
2024/01/28 00:28:45;;;;;;;6.37;3.23;;;;;;;-141.97;54.80;46556.28;4936435;29;20172;-90
2024/01/28 00:31:10;;;;;;;5.37;2.93;;;;;;;-141.97;55.38;46335.31;4952833;29;20432;-90
2024/01/28 00:33:36;;;;;;;3.57;3.00;;;;;;;-141.97;56.13;46400.63;4936203;29;20692;-90
2024/01/28 00:36:01;;;;;;;3.93;3.03;;;;;;;-141.97;56.62;46556.28;4952289;29;20180;-90
2024/01/28 00:38:31;;;;;;;5.53;3.00;;;;;;;-141.97;56.85;46440.97;4936316;29;20183;-91
2024/01/28 00:41:00;;;;;;;4.57;2.80;;;;;;;-141.97;56.94;46150.84;4955751;29;20175;-90
2024/01/28 00:43:27;;;;;;;4.87;3.13;;;;;;;-141.97;57.20;45931.84;4936182;29;20524;-90
2024/01/28 00:45:52;;;;;;;5.73;2.63;;;;;;;-141.97;57.75;45866.53;4936030;29;20480;-90
2024/01/28 00:48:18;;;;;;;3.23;2.80;;;;;;;-141.97;58.04;46392.94;4953438;29;20444;-94
2024/01/28 00:50:43;;;;;;;4.83;2.67;;;;;;;-141.97;58.30;46312.25;4943195;28;20649;-90
2024/01/28 00:53:09;;;;;;;5.07;3.07;;;;;;;-141.97;57.79;45933.75;4971447;28;20579;-89
2024/01/28 00:55:34;;;;;;;5.93;3.20;;;;;;;-141.97;57.80;46563.97;4971202;28;20207;-89
2024/01/28 00:58:02;;;;;;;4.30;3.10;;;;;;;-141.97;58.07;45928.00;4938746;28;20183;-90
2024/01/28 01:00:28;;;;;;;4.20;2.83;;;;;;;-141.97;57.81;46471.72;4941652;28;20589;-89
2024/01/28 01:02:53;;;;;;;4.30;3.00;;;;;;;-141.97;58.23;46485.19;4955315;28;20482;-89
2024/01/28 01:05:19;;;;;;;4.27;2.50;;;;;;;-141.97;57.72;46339.16;4954972;28;20180;-90
2024/01/28 01:07:44;;;;;;;5.20;3.50;;;;;;;-141.97;57.33;46339.16;4956085;28;20180;-90
2024/01/28 01:10:09;;;;;;;5.57;3.37;;;;;;;-141.97;56.97;46110.50;4955515;28;20176;-89
2024/01/28 01:12:35;;;;;;;5.30;3.63;;;;;;;-141.97;57.00;46008.69;4957050;28;20722;-90
2024/01/28 01:15:00;;;;;;;6.33;3.33;;;;;;;-141.97;57.41;45952.97;4963059;28;20180;-88
2024/01/28 01:17:26;;;;;;;4.97;2.73;;;;;;;-141.97;57.46;46389.09;4971532;28;20172;-88
2024/01/28 01:19:51;;;;;;;5.53;3.40;;;;;;;-141.97;57.88;46362.22;4976033;28;20171;-90
2024/01/28 01:22:17;;;;;;;5.77;3.23;;;;;;;-141.97;58.41;46131.66;4955178;28;20286;-90
2024/01/28 01:24:42;;;;;;;9.70;3.43;;;;;;;-141.97;58.07;45997.16;4954390;28;20169;-90
2024/01/28 01:27:08;;;;;;;4.57;2.73;;;;;;;-141.97;57.82;46350.69;4954598;28;20176;-90
2024/01/28 01:29:33;;;;;;;4.93;3.23;;;;;;;-141.97;57.46;46550.50;4954965;28;20178;-90
2024/01/28 01:31:58;;;;;;;5.73;3.27;;;;;;;-141.97;57.31;45912.63;4954556;28;20207;-90
2024/01/28 01:34:24;;;;;;;3.60;2.50;;;;;;;-141.97;57.32;46341.06;4954759;28;20184;-89
2024/01/28 01:36:50;;;;;;;5.27;2.90;;;;;;;-141.97;57.53;46125.88;4970589;28;20168;-89
2024/01/28 01:39:16;;;;;;;7.47;3.60;;;;;;;-141.97;57.68;45887.66;4955038;28;20200;-89
2024/01/28 01:41:43;;;;;;;4.23;2.40;;;;;;;-141.97;57.40;45939.53;4954526;28;20459;-90
2024/01/28 01:44:09;;;;;;;4.97;2.73;;;;;;;-141.97;57.58;46020.22;4950538;29;20224;-91
2024/01/28 01:46:34;;;;;;;4.50;3.03;;;;;;;-141.97;57.37;46427.53;4919192;29;20822;-90
2024/01/28 01:49:00;;;;;;;5.63;3.60;;;;;;;-141.97;57.50;46085.53;4935147;29;20172;-90
2024/01/28 01:51:26;;;;;;;5.67;3.70;;;;;;;-141.97;57.48;45904.94;4951079;29;20247;-90
2024/01/28 01:53:51;;;;;;;5.27;3.40;;;;;;;-141.97;57.50;46450.59;4919337;29;20195;-93
2024/01/28 01:56:17;;;;;;;4.63;3.17;;;;;;;-141.97;57.34;46127.81;4919255;29;20184;-91
2024/01/28 01:58:43;;;;;;;5.03;3.17;;;;;;;-141.97;57.69;46477.50;4935650;29;20575;-90
2024/01/28 02:01:10;;;;;;;7.23;3.83;;;;;;;-141.97;58.23;46187.38;4921744;29;20240;-87
2024/01/28 02:03:36;;;;;;;7.43;3.60;;;;;;;-141.97;58.33;46356.44;4921136;29;20438;-89
2024/01/28 02:06:02;;;;;;;6.17;3.70;;;;;;;-141.97;58.38;46158.53;4919111;29;20438;-90
2024/01/28 02:08:28;;;;;;;5.97;3.90;;;;;;;-141.97;58.10;46308.41;4935250;29;20485;-89
2024/01/28 02:10:54;;;;;;;6.47;3.80;;;;;;;-141.97;58.08;46147.03;4952330;28;20169;-89
2024/01/28 02:13:19;;;;;;;6.47;3.50;;;;;;;-141.97;58.39;46496.72;4934898;29;20882;-90
2024/01/28 02:15:45;;;;;;;6.63;3.70;;;;;;;-141.97;58.30;45935.69;4918840;29;20172;-90
2024/01/28 02:18:11;;;;;;;6.33;3.90;;;;;;;-141.97;58.29;46404.47;4920343;29;20337;-89
2024/01/28 02:20:36;;;;;;;6.30;3.70;;;;;;;-141.97;58.81;46037.50;4922636;29;20423;-90
2024/01/28 02:23:02;;;;;;;7.73;4.07;;;;;;;-141.97;60.06;46152.78;4940839;28;20208;-90
2024/01/28 02:25:27;;;;;;;5.63;3.77;;;;;;;-141.97;60.13;46116.28;4963293;23;20341;-89
2024/01/28 02:27:53;;;;;;;10.13;4.27;;;;;;;-141.97;60.20;46135.50;4985972;28;20279;-90
2024/01/28 02:30:18;;;;;;;8.50;4.03;;;;;;;-141.97;59.89;46389.09;4951374;28;20176;-90
2024/01/28 02:32:50;;;;;;;8.20;3.97;;;;;;;-141.97;60.00;46147.03;4952978;28;20196;-90
2024/01/28 02:35:16;;;;;;;7.77;4.00;;;;;;;-141.97;59.48;45985.63;4985839;28;20183;-89
2024/01/28 02:37:42;;;;;;;5.50;3.60;;;;;;;-141.97;59.06;46004.84;4969905;28;20571;-89
2024/01/28 02:40:08;;;;;;;6.97;4.37;;;;;;;-141.97;58.36;46458.28;4969491;28;20191;-90
2024/01/28 02:42:34;;;;;;;7.47;3.90;;;;;;;-141.97;57.97;46329.53;4950948;28;20741;-91
2024/01/28 02:44:59;;;;;;;7.27;4.33;;;;;;;-141.97;58.32;46283.44;4934825;29;20508;-90
2024/01/28 02:47:25;;;;;;;8.20;4.07;;;;;;;-141.97;58.52;45943.38;4952700;29;20647;-89
2024/01/28 02:49:50;;;;;;;7.10;4.10;;;;;;;-141.97;59.08;46416.00;4924072;29;20281;-89
2024/01/28 02:52:16;;;;;;;7.20;4.03;;;;;;;-141.97;58.73;46024.06;4957732;28;20206;-91
2024/01/28 02:54:42;;;;;;;7.27;4.40;;;;;;;-141.97;58.53;46467.88;4973605;28;20172;-89
2024/01/28 02:57:07;;;;;;;5.77;4.00;;;;;;;-141.97;58.43;46492.88;4949376;29;20157;-91
2024/01/28 02:59:33;;;;;;;8.17;4.57;;;;;;;-141.97;58.96;46298.81;4944774;28;20191;-90
2024/01/28 03:01:58;;;;;;;6.87;3.93;;;;;;;-141.97;59.29;45964.50;4983467;28;20176;-91
2024/01/28 03:04:26;;;;;;;6.80;3.90;;;;;;;-141.97;59.40;46408.31;4975820;28;20171;-90
2024/01/28 03:06:52;;;;;;;6.43;3.87;;;;;;;-141.97;59.86;46177.75;4973320;28;20174;-90
2024/01/28 03:09:18;;;;;;;4.80;3.23;;;;;;;-141.97;59.46;46431.38;4974360;28;20514;-90
2024/01/28 03:11:44;;;;;;;4.60;3.40;;;;;;;-141.97;60.47;46335.31;4980827;28;20255;-89
2024/01/28 03:14:10;;;;;;;9.07;3.70;;;;;;;-141.97;61.28;46185.44;4986060;28;20419;-90
2024/01/28 03:16:36;;;;;;;4.03;3.10;;;;;;;-141.97;61.65;46039.44;4974674;28;20172;-89
2024/01/28 03:19:01;;;;;;;6.00;3.33;;;;;;;-141.97;61.97;46054.81;4973702;28;20543;-89
2024/01/28 03:21:27;;;;;;;6.23;4.13;;;;;;;-141.97;62.78;45866.53;4976331;28;20273;-90
2024/01/28 03:23:52;;;;;;;5.20;3.27;;;;;;;-141.97;62.98;46475.56;4974069;28;20239;-90
2024/01/28 03:26:19;;;;;;;6.17;3.37;;;;;;;-141.97;63.07;46050.97;4973987;28;20226;-90
2024/01/28 03:28:45;;;;;;;4.33;3.20;;;;;;;-141.97;62.84;46074.00;4992930;28;20241;-90
2024/01/28 03:31:10;;;;;;;6.17;3.97;;;;;;;-141.97;63.03;45897.25;4976986;28;20903;-90
2024/01/28 03:33:36;;;;;;;4.90;3.50;;;;;;;-141.97;63.05;46148.94;5015364;28;20214;-89
2024/01/28 03:36:01;;;;;;;7.60;3.90;;;;;;;-141.97;63.35;45952.97;4994913;28;20179;-89
2024/01/28 03:38:26;;;;;;;10.37;4.37;;;;;;;-141.97;62.49;46364.13;4992834;28;20164;-89
2024/01/28 03:40:52;;;;;;;8.13;4.80;;;;;;;-141.97;62.36;46043.28;4975868;28;20187;-90
2024/01/28 03:43:17;;;;;;;7.67;3.73;;;;;;;-141.97;61.61;46100.91;4992014;28;20192;-90
2024/01/28 03:45:43;;;;;;;9.03;4.90;;;;;;;-141.97;61.59;46400.63;4975621;28;20183;-89
2024/01/28 03:48:09;;;;;;;8.30;4.50;;;;;;;-141.97;61.80;46492.88;4992072;28;20195;-90
2024/01/28 03:50:34;;;;;;;10.07;4.30;;;;;;;-141.97;62.48;46139.34;4976162;28;20245;-90
2024/01/28 03:52:59;;;;;;;7.23;3.60;;;;;;;-141.97;62.69;46535.13;5008422;28;20571;-91
2024/01/28 03:55:25;;;;;;;5.80;3.23;;;;;;;-141.97;63.18;45987.56;4992078;28;20175;-89
2024/01/28 03:57:50;;;;;;;7.40;4.30;;;;;;;-141.97;62.96;46312.25;4993394;28;20256;-89
2024/01/28 04:00:18;;;;;;;7.70;3.83;;;;;;;-141.97;62.55;46431.38;5010881;28;20168;-90
2024/01/28 04:02:43;;;;;;;10.03;4.50;;;;;;;-141.97;61.78;46014.44;4993561;28;20186;-90
2024/01/28 04:05:09;;;;;;;6.43;3.47;;;;;;;-141.97;61.69;45893.41;4992662;28;20806;-90
2024/01/28 04:07:35;;;;;;;6.30;3.67;;;;;;;-141.97;61.97;46139.34;4992363;28;20182;-92
2024/01/28 04:10:00;;;;;;;5.90;3.47;;;;;;;-141.97;62.04;46496.72;5009218;28;20627;-90
2024/01/28 04:12:25;;;;;;;5.40;3.13;;;;;;;-141.97;62.04;46074.00;5009284;28;20265;-91
2024/01/28 04:14:51;;;;;;;7.13;3.43;;;;;;;-141.97;61.75;46102.81;4980022;28;20640;-91
2024/01/28 04:17:16;;;;;;;4.93;3.13;;;;;;;-141.97;60.97;46020.22;5005520;28;20559;-90
2024/01/28 04:19:42;;;;;;;5.57;3.03;;;;;;;-141.97;60.80;45989.47;4976478;28;20180;-91
2024/01/28 04:22:10;;;;;;;5.43;3.40;;;;;;;-141.97;60.58;45964.50;4976216;28;20267;-91
2024/01/28 04:24:36;;;;;;;4.53;2.87;;;;;;;-141.97;60.84;46560.13;4994644;28;20691;-90
2024/01/28 04:27:02;;;;;;;5.30;3.13;;;;;;;-141.97;60.23;45874.22;4995860;28;20449;-91
2024/01/28 04:29:27;;;;;;;6.40;3.33;;;;;;;-141.97;60.34;46062.47;4995866;28;20422;-91
2024/01/28 04:31:56;;;;;;;5.03;2.90;;;;;;;-141.97;60.05;45814.66;4995827;28;20536;-91
2024/01/28 04:34:22;;;;;;;7.03;3.27;;;;;;;-141.97;59.71;46020.22;4979668;28;20270;-92
2024/01/28 04:36:47;;;;;;;4.67;3.27;;;;;;;-141.97;59.47;46077.84;4979218;28;20556;-92
2024/01/28 04:39:13;;;;;;;7.60;3.37;;;;;;;-141.97;59.02;46435.22;4979086;28;20432;-91
2024/01/28 04:41:39;;;;;;;5.23;2.73;;;;;;;-141.97;58.41;46087.47;4970624;28;20603;-91
2024/01/28 04:44:04;;;;;;;7.07;3.60;;;;;;;-141.97;58.12;45901.09;4959368;28;20167;-91
2024/01/28 04:46:30;;;;;;;5.27;2.83;;;;;;;-141.97;58.13;46085.53;4959163;28;20179;-88
2024/01/28 04:48:55;;;;;;;5.93;3.70;;;;;;;-141.97;58.49;46456.34;4970642;28;20260;-89
2024/01/28 04:51:21;;;;;;;3.80;2.90;;;;;;;-141.97;58.98;46097.06;4948469;28;20178;-90
2024/01/28 04:53:46;;;;;;;5.20;2.70;;;;;;;-141.97;59.34;46027.91;4959162;28;20214;-90
2024/01/28 04:56:12;;;;;;;7.97;4.00;;;;;;;-141.97;59.63;46352.59;4957931;28;20179;-90
2024/01/28 04:58:37;;;;;;;6.10;3.23;;;;;;;-141.97;59.86;46316.09;4943617;28;20186;-90
2024/01/28 05:01:03;;;;;;;6.37;3.13;;;;;;;-141.97;60.05;45878.06;4958373;28;20634;-90
2024/01/28 05:03:29;;;;;;;6.17;3.20;;;;;;;-141.97;60.50;46108.59;4958515;28;20171;-89
2024/01/28 05:05:54;;;;;;;5.40;3.50;;;;;;;-141.97;60.88;46531.28;4958714;28;20609;-89
2024/01/28 05:08:19;;;;;;;5.83;3.47;;;;;;;-141.97;60.99;46406.41;4974727;28;20175;-89
2024/01/28 05:10:45;;;;;;;9.50;3.97;;;;;;;-141.97;61.16;46166.22;4942715;28;20172;-90
2024/01/28 05:13:10;;;;;;;6.90;3.57;;;;;;;-141.97;60.30;46473.66;4975919;28;20199;-90
2024/01/28 05:15:36;;;;;;;6.87;3.60;;;;;;;-141.97;60.78;45977.94;4943261;28;20182;-90
2024/01/28 05:18:01;;;;;;;10.40;3.93;;;;;;;-141.97;60.82;46521.69;4958436;28;20249;-90
2024/01/28 05:20:27;;;;;;;6.03;3.60;;;;;;;-141.97;60.55;46377.56;4945829;28;20242;-89
2024/01/28 05:22:52;;;;;;;6.77;4.00;;;;;;;-141.97;60.95;45993.31;4942915;28;20423;-89
2024/01/28 05:25:17;;;;;;;10.97;5.57;;;;;;;-141.97;61.22;46177.75;4945466;28;20226;-90
2024/01/28 05:27:44;;;;;;;13.00;6.00;;;;;;;-141.97;61.88;46123.97;4947341;28;20250;-90
2024/01/28 05:30:09;;;;;;;14.63;6.50;;;;;;;-141.97;61.99;46558.19;4959851;28;20262;-90
2024/01/28 05:32:35;;;;;;;10.07;4.47;;;;;;;-141.97;62.33;45951.06;4959523;28;20458;-91
2024/01/28 05:35:04;;;;;;;7.70;3.23;;;;;;;-141.97;62.32;46024.06;4958960;28;20167;-90
2024/01/28 05:37:30;;;;;;;6.50;4.00;;;;;;;-141.97;61.77;46354.53;4953588;28;20185;-90
2024/01/28 05:39:56;;;;;;;6.90;3.50;;;;;;;-141.97;61.57;46431.38;4948424;28;20431;-91
2024/01/28 05:42:22;;;;;;;7.53;4.00;;;;;;;-141.97;61.11;46158.53;4958226;28;20199;-89
2024/01/28 05:44:47;;;;;;;4.80;3.77;;;;;;;-141.97;61.28;45956.81;4991491;28;20439;-89
2024/01/28 05:47:13;;;;;;;6.90;3.70;;;;;;;-141.97;60.64;45885.72;4942167;28;20570;-88
2024/01/28 05:49:38;;;;;;;7.63;4.20;;;;;;;-141.97;60.67;46439.06;4974287;28;20253;-89
2024/01/28 05:52:04;;;;;;;8.00;3.80;;;;;;;-141.97;60.54;46377.56;4958094;28;20294;-88
2024/01/28 05:54:30;;;;;;;5.70;3.03;;;;;;;-141.97;60.37;45897.25;4960276;28;20569;-87
2024/01/28 05:56:56;;;;;;;6.97;4.13;;;;;;;-141.97;60.42;45928.00;4945397;28;20415;-88
2024/01/28 05:59:21;;;;;;;5.60;3.30;;;;;;;-141.97;60.44;45862.69;4944013;28;20747;-88
2024/01/28 06:01:46;;;;;;;5.07;2.90;;;;;;;-141.97;60.19;46006.78;4942550;28;20171;-88
2024/01/28 06:04:12;;;;;;;9.40;4.03;;;;;;;-141.97;60.73;46102.81;4974184;28;20222;-89
2024/01/28 06:06:37;;;;;;;7.40;4.27;;;;;;;-141.97;60.79;46373.72;4957459;28;20174;-88
2024/01/28 06:09:04;;;;;;;7.70;4.43;;;;;;;-141.97;60.80;45845.41;4973399;28;20171;-88
2024/01/28 06:11:30;;;;;;;9.43;4.77;;;;;;;-141.97;61.01;46187.38;4974079;28;20632;-91
2024/01/28 06:13:55;;;;;;;24.27;9.37;;;;;;;-141.97;61.19;46362.22;4957995;28;20469;-91
2024/01/28 06:16:21;;;;;;;15.83;5.70;;;;;;;-141.97;61.22;46025.97;4973508;28;20183;-90
2024/01/28 06:18:46;;;;;;;10.90;5.50;;;;;;;-141.97;61.63;46110.50;4941703;28;20167;-89
2024/01/28 06:21:12;;;;;;;7.87;5.30;;;;;;;-141.97;61.72;46002.94;4984156;28;20178;-89
2024/01/28 06:23:38;;;;;;;7.90;4.23;;;;;;;-141.97;61.37;46166.22;4993374;28;20365;-87
2024/01/28 06:26:04;;;;;;;6.87;4.30;;;;;;;-141.97;61.60;45910.72;4958927;28;20231;-89
2024/01/28 06:28:29;;;;;;;10.13;4.00;;;;;;;-141.97;60.90;46093.22;4973496;28;20586;-89
2024/01/28 06:30:55;;;;;;;7.43;3.70;;;;;;;-141.97;61.00;46385.25;4973954;28;20422;-90
2024/01/28 06:33:20;;;;;;;6.70;3.90;;;;;;;-141.97;60.66;46108.59;4990580;28;20585;-89
2024/01/28 06:35:46;;;;;;;8.47;4.80;;;;;;;-141.97;60.38;46456.34;4990237;28;20186;-90
2024/01/28 06:38:11;;;;;;;7.27;4.30;;;;;;;-141.97;59.17;46075.94;4973150;28;20160;-89
2024/01/28 06:40:37;;;;;;;7.33;4.07;;;;;;;-141.97;59.28;46264.22;4989353;28;20190;-89
2024/01/28 06:43:02;;;;;;;9.23;4.97;;;;;;;-141.97;58.92;46175.84;4990515;28;20167;-90
2024/01/28 06:45:28;;;;;;;10.10;3.83;;;;;;;-141.97;57.92;46079.78;4974561;28;20199;-89
2024/01/28 06:47:54;;;;;;;6.20;3.87;;;;;;;-141.97;57.10;46162.38;4988693;28;20206;-89
2024/01/28 06:50:19;;;;;;;12.93;6.03;;;;;;;-141.97;57.03;46281.50;4973504;28;20166;-90
2024/01/28 06:52:45;;;;;;;6.83;4.13;;;;;;;-141.97;56.87;46166.22;4972649;28;20191;-89
2024/01/28 06:55:10;;;;;;;10.80;4.80;;;;;;;-141.97;56.04;46454.44;4988930;28;20191;-90
2024/01/28 06:57:37;;;;;;;9.80;5.83;;;;;;;-141.97;55.66;45958.75;4981596;28;20199;-89
2024/01/28 07:00:05;;;;;;;12.60;5.87;;;;;;;-141.97;55.24;45976.03;4950593;28;20179;-89
2024/01/28 07:02:30;;;;;;;10.20;5.07;;;;;;;-141.97;55.03;46116.28;4950601;29;20959;-89
2024/01/28 07:04:56;;;;;;;13.67;6.63;;;;;;;-141.97;54.59;46066.31;4950411;29;20530;-89
2024/01/28 07:07:22;;;;;;;17.60;8.33;;;;;;;-141.97;54.87;46099.00;4934900;29;20164;-89
2024/01/28 07:09:48;;;;;;;10.53;6.53;;;;;;;-141.97;54.55;45899.19;4952104;28;20200;-89
2024/01/28 07:12:13;;;;;;;8.37;4.90;;;;;;;-141.97;54.44;45895.34;4934058;29;20473;-89
2024/01/28 07:14:40;;;;;;;9.87;4.43;;;;;;;-141.97;54.45;45866.53;4918544;29;20169;-88
2024/01/28 07:17:07;;;;;;;8.60;5.00;;;;;;;-141.97;53.98;46344.91;4952053;29;20312;-89
2024/01/28 07:19:32;;;;;;;6.77;4.17;;;;;;;-141.97;53.60;46133.56;4952641;29;20494;-88
2024/01/28 07:21:58;;;;;;;7.37;3.90;;;;;;;-141.97;53.68;46116.28;4976921;28;20419;-89
2024/01/28 07:24:23;;;;;;;8.87;4.57;;;;;;;-141.97;52.95;46214.25;4977635;28;20197;-90
2024/01/28 07:26:49;;;;;;;9.03;4.60;;;;;;;-141.97;52.74;45989.47;5017465;28;20187;-90
2024/01/28 07:29:14;;;;;;;7.00;3.97;;;;;;;-141.97;53.22;46323.78;5031901;28;20549;-89
2024/01/28 07:31:40;;;;;;;8.30;5.10;;;;;;;-141.97;53.11;46546.66;5013718;28;20197;-89
2024/01/28 07:34:05;;;;;;;13.67;5.43;;;;;;;-141.97;52.05;45937.59;4990597;28;20188;-88
2024/01/28 07:36:31;;;;;;;9.53;5.03;;;;;;;-141.97;52.21;46220.03;4963505;28;20167;-88
2024/01/28 07:38:57;;;;;;;20.17;8.80;;;;;;;-141.97;51.99;46127.81;4979929;28;20599;-89
2024/01/28 07:41:22;;;;;;;14.97;6.23;;;;;;;-141.97;52.37;46135.50;4961067;28;20728;-89
2024/01/28 07:43:48;;;;;;;8.63;4.20;;;;;;;-141.97;52.08;46562.03;4978338;28;20163;-88
2024/01/28 07:46:13;;;;;;;10.77;5.30;;;;;;;-141.97;52.79;46058.63;4994008;28;20170;-88
2024/01/28 07:48:39;;;;;;;10.87;6.10;;;;;;;-141.97;52.47;45837.72;4977934;28;20167;-88
2024/01/28 07:51:05;;;;;;;10.77;4.47;;;;;;;-141.97;51.71;46027.91;4996553;28;20225;-87
2024/01/28 07:53:30;;;;;;;10.10;4.60;;;;;;;-141.97;52.29;46014.44;4998253;28;20262;-90
2024/01/28 07:55:55;;;;;;;6.23;4.53;;;;;;;-141.97;51.77;45954.91;4994120;28;20174;-91
2024/01/28 07:58:21;;;;;;;9.07;4.10;;;;;;;-141.97;51.87;46077.84;4979388;28;20202;-88
2024/01/28 08:00:46;;;;;;;7.70;4.80;;;;;;;-141.97;51.55;45974.09;5000627;28;20170;-87
2024/01/28 08:03:12;;;;;;;29.80;12.43;;;;;;;-141.97;51.55;45947.22;4999357;28;20210;-87
2024/01/28 08:05:43;;;;;;;23.27;9.53;;;;;;;-141.97;51.59;45922.25;4981680;28;20221;-88
2024/01/28 08:08:09;;;;;;;18.80;9.70;;;;;;;-141.97;51.18;46300.72;4996362;28;20176;-88
2024/01/28 08:10:34;;;;;;;6.77;4.80;;;;;;;-141.97;50.58;46089.38;4979879;28;20417;-88
2024/01/28 08:12:59;;;;;;;14.93;7.87;;;;;;;-141.97;50.52;46024.06;4996273;28;20191;-89
2024/01/28 08:15:25;;;;;;;11.97;5.93;;;;;;;-141.97;50.53;46060.56;4980002;28;20197;-87
2024/01/28 08:17:50;;;;;;;13.97;6.77;;;;;;;-141.97;50.60;45866.53;4995529;28;20158;-86
2024/01/28 08:20:19;;;;;;;12.17;5.93;;;;;;;-141.97;50.29;46512.06;4995544;28;20166;-88
2024/01/28 08:22:44;;;;;;;20.57;8.93;;;;;;;-141.97;50.39;45893.41;4979426;28;20228;-87
2024/01/28 08:25:13;;;;;;;7.20;4.23;;;;;;;-141.97;49.96;45943.38;4994988;28;20465;-87
2024/01/28 08:27:38;;;;;;;6.97;5.07;;;;;;;-141.97;50.15;46054.81;4983703;28;20163;-89
2024/01/28 08:30:06;;;;;;;8.20;4.57;;;;;;;-141.97;50.15;45806.97;5010165;28;20439;-89
2024/01/28 08:32:31;;;;;;;13.57;6.40;;;;;;;-141.97;49.18;46364.13;5012275;28;20717;-89
2024/01/28 08:34:57;;;;;;;10.77;6.03;;;;;;;-141.97;48.67;45893.41;4979788;28;20410;-88
2024/01/28 08:37:22;;;;;;;12.20;6.63;;;;;;;-141.97;48.53;45801.22;4979228;28;20174;-88
2024/01/28 08:39:48;;;;;;;7.57;5.57;;;;;;;-141.97;48.29;46079.78;4979110;28;20174;-89
2024/01/28 08:42:15;;;;;;;16.43;6.67;;;;;;;-141.97;47.76;46341.06;4979860;28;20233;-88
2024/01/28 08:44:40;;;;;;;7.53;4.50;;;;;;;-141.97;47.60;46352.59;5011304;28;20213;-87
2024/01/28 08:47:06;;;;;;;8.20;5.07;;;;;;;-141.97;47.56;46020.22;4994750;28;20785;-89
2024/01/28 08:49:32;;;;;;;5.57;3.50;;;;;;;-141.97;47.52;45935.69;4978354;28;20677;-89
2024/01/28 08:51:57;;;;;;;8.90;5.63;;;;;;;-141.97;47.85;45947.22;4994990;28;20577;-87
2024/01/28 08:54:24;;;;;;;16.43;8.47;;;;;;;-141.97;46.79;45866.53;4977890;28;20170;-88
2024/01/28 08:56:50;;;;;;;14.30;6.90;;;;;;;-141.97;46.09;45849.25;4978371;28;20173;-89
2024/01/28 08:59:16;;;;;;;17.17;8.43;;;;;;;-141.97;45.59;46367.97;4977914;28;20572;-88
2024/01/28 09:01:42;;;;;;;7.40;4.80;;;;;;;-141.97;45.68;46294.97;4978161;28;20170;-88
2024/01/28 09:04:07;;;;;;;14.20;7.07;;;;;;;-141.97;45.49;46329.53;4977903;28;20174;-88
2024/01/28 09:06:33;;;;;;;19.87;11.80;;;;;;;-141.97;45.29;46440.97;4977915;28;20569;-92
2024/01/28 09:09:00;;;;;;;11.07;4.80;;;;;;;-141.97;44.84;46281.50;4977613;28;20540;-88
2024/01/28 09:11:25;;;;;;;9.00;5.20;;;;;;;-141.97;44.74;46041.34;4978147;28;20189;-87
2024/01/28 09:13:51;;;;;;;16.77;8.00;;;;;;;-141.97;44.71;45928.00;4978281;28;20198;-87
2024/01/28 09:16:16;;;;;;;12.30;7.07;;;;;;;-141.97;44.16;46423.69;4995590;28;20162;-88
2024/01/28 09:18:42;;;;;;;18.90;9.77;;;;;;;-141.97;43.87;45878.06;4994776;28;20580;-89
2024/01/28 09:21:09;;;;;;;17.67;9.07;;;;;;;-141.97;43.46;46012.53;4979137;28;20162;-89
2024/01/28 09:23:35;;;;;;;6.10;4.57;;;;;;;-141.97;43.29;45914.56;4979940;28;20638;-89
2024/01/28 09:26:01;;;;;;;5.20;3.30;;;;;;;-141.97;43.80;45991.41;4978321;28;20219;-88
2024/01/28 09:28:27;;;;;;;5.93;3.50;;;;;;;-141.97;44.02;45904.94;5011798;28;20610;-88
2024/01/28 09:30:53;;;;;;;5.00;3.67;;;;;;;-141.97;44.16;45897.25;4977685;28;20170;-89
2024/01/28 09:33:18;;;;;;;10.20;5.43;;;;;;;-141.97;43.06;46016.38;4977997;28;20686;-88
2024/01/28 09:35:46;;;;;;;8.10;5.37;;;;;;;-141.97;42.60;45851.16;4979086;28;20170;-87
2024/01/28 09:38:12;;;;;;;17.03;7.00;;;;;;;-141.97;42.30;46346.84;4977708;28;20167;-89
2024/01/28 09:40:37;;;;;;;10.17;5.97;;;;;;;-141.97;42.61;45860.75;4996038;28;20185;-86
2024/01/28 09:43:09;;;;;;;7.30;4.27;;;;;;;-141.97;42.66;46016.38;4975117;28;20272;-88
2024/01/28 09:45:35;;;;;;;4.47;2.80;;;;;;;-141.97;41.60;45858.84;4976837;28;20167;-90
2024/01/28 09:48:01;;;;;;;18.23;7.40;;;;;;;-141.97;42.95;45904.94;4976405;28;20250;-86
2024/01/28 09:50:27;;;;;;;15.03;6.97;;;;;;;-141.97;41.71;46306.50;4974129;28;20171;-88
2024/01/28 09:52:52;;;;;;;8.83;4.50;;;;;;;-141.97;41.40;45755.09;4957513;28;20199;-89
2024/01/28 09:55:18;;;;;;;5.57;3.60;;;;;;;-141.97;41.61;45945.28;4974241;28;20175;-87
2024/01/28 09:57:43;;;;;;;17.20;6.30;;;;;;;-141.97;41.39;45918.41;4974251;28;20171;-87
2024/01/28 10:00:09;;;;;;;8.90;4.50;;;;;;;-141.97;40.32;46016.38;4958307;28;20178;-89
2024/01/28 10:02:37;;;;;;;15.13;7.27;;;;;;;-141.97;39.88;46296.88;4975599;28;20152;-88
2024/01/28 10:05:04;;;;;;;15.50;7.07;;;;;;;-141.97;39.73;46296.88;4961745;28;20167;-88
2024/01/28 10:07:41;;;;;;;19.20;10.13;;;;;;;-141.97;40.05;45812.72;4974793;28;20167;-87
2024/01/28 10:10:07;;;;;;;8.73;4.60;;;;;;;-141.97;39.31;45893.41;4975115;28;20471;-90
2024/01/28 10:12:33;;;;;;;17.93;9.53;;;;;;;-141.97;40.14;46298.81;4958865;28;20254;-89
2024/01/28 10:14:58;;;;;;;15.47;7.07;;;;;;;-141.97;39.70;45970.25;4958172;28;20194;-90
2024/01/28 10:17:23;;;;;;;40.23;18.43;;;;;;;-141.97;39.56;46273.81;4974725;28;20167;-89
2024/01/28 10:19:49;;;;;;;17.07;9.80;;;;;;;-141.97;39.61;46152.78;4990842;28;20236;-91
2024/01/28 10:22:14;;;;;;;18.33;8.00;;;;;;;-141.97;39.57;45789.69;4956786;28;20163;-87
2024/01/28 10:24:42;;;;;;;17.70;9.80;;;;;;;-141.97;38.75;45970.25;4961870;28;20223;-88
2024/01/28 10:27:07;;;;;;;11.33;7.00;;;;;;;-141.97;38.97;46227.72;4960813;28;20214;-87
2024/01/28 10:29:33;;;;;;;17.17;9.40;;;;;;;-141.97;39.43;46273.81;4973266;28;20675;-89
2024/01/28 10:32:01;;;;;;;19.33;9.87;;;;;;;-141.97;39.43;45951.06;4957236;28;20166;-87
2024/01/28 10:34:27;;;;;;;254.00;96.97;;;;;;;-141.97;39.76;45839.63;4977514;28;20176;-88
2024/01/28 10:36:53;;;;;;;89.53;39.40;;;;;;;-141.97;39.97;46227.72;4975567;28;20178;-88
2024/01/28 10:39:18;;;;;;;30.03;14.53;;;;;;;-141.97;39.66;45947.22;4957223;28;20176;-88
2024/01/28 10:41:44;;;;;;;34.10;12.30;;;;;;;-141.97;39.38;46366.06;4957916;28;20183;-88
2024/01/28 10:44:10;;;;;;;14.90;7.47;;;;;;;-141.97;38.68;45828.09;4975368;28;20186;-89
2024/01/28 10:46:41;;;;;;;10.37;5.80;;;;;;;-141.97;39.66;45897.25;4974251;28;20171;-87
2024/01/28 10:49:07;;;;;;;11.23;6.67;;;;;;;-141.97;39.72;45904.94;4958178;28;20172;-87
2024/01/28 10:51:33;;;;;;;51.03;26.33;;;;;;;-141.97;40.96;46277.66;4958007;28;20633;-87
2024/01/28 10:53:59;;;;;;;37.47;21.43;;;;;;;-141.97;41.56;45970.25;4958815;28;20639;-87
2024/01/28 10:56:24;;;;;;;16.13;9.27;;;;;;;-141.97;41.79;46189.28;4973461;28;20163;-87
2024/01/28 10:58:50;;;;;;;28.27;13.37;;;;;;;-141.97;41.41;45937.59;4985559;28;20177;-85
2024/01/28 11:01:17;;;;;;;13.27;6.30;;;;;;;-141.97;40.58;46058.63;4982068;28;20169;-86
2024/01/28 11:03:42;;;;;;;20.13;9.57;;;;;;;-141.97;41.80;46454.44;4999049;28;20182;-85
2024/01/28 11:06:07;;;;;;;15.10;8.27;;;;;;;-141.97;41.40;46367.97;5012903;28;20521;-85
2024/01/28 11:08:33;;;;;;;26.63;12.20;;;;;;;-141.97;40.78;45885.72;4996811;28;20181;-84